sensor_id;sensor_type;location;lat;lon;timestamp;P1;durP1;ratioP1;P2;durP2;ratioP2
34783;SDS011;20998;51.388;7.032;2023-07-20T00:01:46;7.43;;;3.20;;
34783;SDS011;20998;51.388;7.032;2023-07-20T00:04:12;5.27;;;4.03;;
34783;SDS011;20998;51.388;7.032;2023-07-20T00:06:39;6.53;;;4.03;;
34783;SDS011;20998;51.388;7.032;2023-07-20T00:09:08;3.90;;;3.03;;
34783;SDS011;20998;51.388;7.032;2023-07-20T00:11:37;7.23;;;3.73;;
34783;SDS011;20998;51.388;7.032;2023-07-20T00:14:04;7.43;;;3.63;;
34783;SDS011;20998;51.388;7.032;2023-07-20T00:16:30;9.93;;;4.00;;
34783;SDS011;20998;51.388;7.032;2023-07-20T00:18:56;6.70;;;4.13;;
34783;SDS011;20998;51.388;7.032;2023-07-20T00:21:22;12.00;;;3.40;;
34783;SDS011;20998;51.388;7.032;2023-07-20T00:23:47;5.53;;;3.77;;
34783;SDS011;20998;51.388;7.032;2023-07-20T00:26:13;5.87;;;3.70;;
34783;SDS011;20998;51.388;7.032;2023-07-20T00:28:39;6.93;;;3.60;;
34783;SDS011;20998;51.388;7.032;2023-07-20T00:31:04;6.63;;;3.80;;
34783;SDS011;20998;51.388;7.032;2023-07-20T00:33:30;4.63;;;3.37;;
34783;SDS011;20998;51.388;7.032;2023-07-20T00:35:56;5.50;;;3.97;;
34783;SDS011;20998;51.388;7.032;2023-07-20T00:38:22;8.20;;;4.23;;
34783;SDS011;20998;51.388;7.032;2023-07-20T00:40:48;5.87;;;3.77;;
34783;SDS011;20998;51.388;7.032;2023-07-20T00:43:14;9.17;;;4.90;;
34783;SDS011;20998;51.388;7.032;2023-07-20T00:45:40;6.63;;;4.63;;
34783;SDS011;20998;51.388;7.032;2023-07-20T00:48:06;5.97;;;3.67;;
34783;SDS011;20998;51.388;7.032;2023-07-20T00:50:33;7.50;;;4.40;;
34783;SDS011;20998;51.388;7.032;2023-07-20T00:52:59;8.57;;;4.20;;
34783;SDS011;20998;51.388;7.032;2023-07-20T00:55:25;7.83;;;3.90;;
34783;SDS011;20998;51.388;7.032;2023-07-20T00:57:52;9.50;;;4.50;;
34783;SDS011;20998;51.388;7.032;2023-07-20T01:00:18;6.00;;;4.03;;
34783;SDS011;20998;51.388;7.032;2023-07-20T01:02:44;6.50;;;4.50;;
34783;SDS011;20998;51.388;7.032;2023-07-20T01:05:10;10.00;;;4.70;;
34783;SDS011;20998;51.388;7.032;2023-07-20T01:10:14;8.67;;;4.40;;
34783;SDS011;20998;51.388;7.032;2023-07-20T01:13:01;6.67;;;4.00;;
34783;SDS011;20998;51.388;7.032;2023-07-20T01:15:27;6.60;;;4.00;;
34783;SDS011;20998;51.388;7.032;2023-07-20T01:17:53;7.10;;;4.03;;
34783;SDS011;20998;51.388;7.032;2023-07-20T01:20:20;5.60;;;3.70;;
34783;SDS011;20998;51.388;7.032;2023-07-20T01:23:02;7.27;;;4.47;;
34783;SDS011;20998;51.388;7.032;2023-07-20T01:28:35;7.60;;;3.70;;
34783;SDS011;20998;51.388;7.032;2023-07-20T01:33:35;7.20;;;3.87;;
34783;SDS011;20998;51.388;7.032;2023-07-20T01:36:01;6.60;;;3.97;;
34783;SDS011;20998;51.388;7.032;2023-07-20T01:38:27;6.83;;;4.30;;
34783;SDS011;20998;51.388;7.032;2023-07-20T01:40:54;6.70;;;3.37;;
34783;SDS011;20998;51.388;7.032;2023-07-20T01:43:20;9.77;;;3.80;;
34783;SDS011;20998;51.388;7.032;2023-07-20T01:45:47;6.93;;;3.93;;
34783;SDS011;20998;51.388;7.032;2023-07-20T01:48:13;5.87;;;3.93;;
34783;SDS011;20998;51.388;7.032;2023-07-20T01:50:39;6.30;;;3.90;;
34783;SDS011;20998;51.388;7.032;2023-07-20T01:53:05;6.87;;;3.57;;
34783;SDS011;20998;51.388;7.032;2023-07-20T01:55:31;9.13;;;4.03;;
34783;SDS011;20998;51.388;7.032;2023-07-20T01:57:57;10.23;;;3.90;;
34783;SDS011;20998;51.388;7.032;2023-07-20T02:00:25;7.33;;;4.00;;
34783;SDS011;20998;51.388;7.032;2023-07-20T02:02:51;9.53;;;3.57;;
34783;SDS011;20998;51.388;7.032;2023-07-20T02:05:17;10.23;;;4.13;;
34783;SDS011;20998;51.388;7.032;2023-07-20T02:07:43;9.30;;;3.63;;
34783;SDS011;20998;51.388;7.032;2023-07-20T02:10:09;6.67;;;4.53;;
34783;SDS011;20998;51.388;7.032;2023-07-20T02:12:35;6.70;;;3.70;;
34783;SDS011;20998;51.388;7.032;2023-07-20T02:15:01;15.93;;;4.90;;
34783;SDS011;20998;51.388;7.032;2023-07-20T02:17:27;9.20;;;4.50;;
34783;SDS011;20998;51.388;7.032;2023-07-20T02:19:53;9.13;;;4.97;;
34783;SDS011;20998;51.388;7.032;2023-07-20T02:22:20;18.10;;;5.10;;
34783;SDS011;20998;51.388;7.032;2023-07-20T02:24:46;9.27;;;4.87;;
34783;SDS011;20998;51.388;7.032;2023-07-20T02:27:12;11.57;;;5.07;;
34783;SDS011;20998;51.388;7.032;2023-07-20T02:29:38;11.80;;;5.90;;
34783;SDS011;20998;51.388;7.032;2023-07-20T02:32:04;14.43;;;4.80;;
34783;SDS011;20998;51.388;7.032;2023-07-20T02:34:30;10.43;;;5.30;;
34783;SDS011;20998;51.388;7.032;2023-07-20T02:36:56;22.87;;;5.70;;
34783;SDS011;20998;51.388;7.032;2023-07-20T02:39:23;10.73;;;5.20;;
34783;SDS011;20998;51.388;7.032;2023-07-20T02:41:50;8.60;;;4.97;;
34783;SDS011;20998;51.388;7.032;2023-07-20T02:44:16;8.83;;;5.40;;
34783;SDS011;20998;51.388;7.032;2023-07-20T02:46:42;13.27;;;5.27;;
34783;SDS011;20998;51.388;7.032;2023-07-20T02:49:08;12.10;;;4.90;;
34783;SDS011;20998;51.388;7.032;2023-07-20T02:51:34;9.47;;;4.93;;
34783;SDS011;20998;51.388;7.032;2023-07-20T02:54:00;8.80;;;5.20;;
34783;SDS011;20998;51.388;7.032;2023-07-20T02:56:26;8.50;;;5.30;;
34783;SDS011;20998;51.388;7.032;2023-07-20T02:58:52;11.90;;;5.90;;
34783;SDS011;20998;51.388;7.032;2023-07-20T03:01:18;7.93;;;4.93;;
34783;SDS011;20998;51.388;7.032;2023-07-20T03:03:44;6.57;;;4.47;;
34783;SDS011;20998;51.388;7.032;2023-07-20T03:06:16;13.23;;;5.57;;
34783;SDS011;20998;51.388;7.032;2023-07-20T03:08:42;10.27;;;5.07;;
34783;SDS011;20998;51.388;7.032;2023-07-20T03:11:17;11.60;;;5.80;;
34783;SDS011;20998;51.388;7.032;2023-07-20T03:13:44;7.30;;;4.53;;
34783;SDS011;20998;51.388;7.032;2023-07-20T03:16:10;8.60;;;4.77;;
34783;SDS011;20998;51.388;7.032;2023-07-20T03:18:37;10.33;;;5.23;;
34783;SDS011;20998;51.388;7.032;2023-07-20T03:21:04;12.37;;;5.83;;
34783;SDS011;20998;51.388;7.032;2023-07-20T03:23:30;13.07;;;5.60;;
34783;SDS011;20998;51.388;7.032;2023-07-20T03:25:56;9.20;;;4.73;;
34783;SDS011;20998;51.388;7.032;2023-07-20T03:28:22;9.23;;;5.47;;
34783;SDS011;20998;51.388;7.032;2023-07-20T03:30:58;12.13;;;5.00;;
34783;SDS011;20998;51.388;7.032;2023-07-20T03:33:27;8.87;;;5.73;;
34783;SDS011;20998;51.388;7.032;2023-07-20T03:35:54;12.03;;;5.57;;
34783;SDS011;20998;51.388;7.032;2023-07-20T03:38:21;11.33;;;5.53;;
34783;SDS011;20998;51.388;7.032;2023-07-20T03:40:50;8.43;;;4.77;;
34783;SDS011;20998;51.388;7.032;2023-07-20T03:43:16;13.67;;;5.83;;
34783;SDS011;20998;51.388;7.032;2023-07-20T03:45:42;11.40;;;5.60;;
34783;SDS011;20998;51.388;7.032;2023-07-20T03:48:09;12.40;;;5.63;;
34783;SDS011;20998;51.388;7.032;2023-07-20T03:50:35;12.47;;;5.20;;
34783;SDS011;20998;51.388;7.032;2023-07-20T03:53:01;17.90;;;6.30;;
34783;SDS011;20998;51.388;7.032;2023-07-20T03:55:27;13.57;;;6.10;;
34783;SDS011;20998;51.388;7.032;2023-07-20T03:57:53;10.93;;;5.93;;
34783;SDS011;20998;51.388;7.032;2023-07-20T04:00:19;9.17;;;5.60;;
34783;SDS011;20998;51.388;7.032;2023-07-20T04:02:46;13.17;;;5.63;;
34783;SDS011;20998;51.388;7.032;2023-07-20T04:05:12;17.87;;;6.37;;
34783;SDS011;20998;51.388;7.032;2023-07-20T04:07:38;16.27;;;6.40;;
34783;SDS011;20998;51.388;7.032;2023-07-20T04:10:04;12.70;;;6.60;;
34783;SDS011;20998;51.388;7.032;2023-07-20T04:12:29;13.73;;;7.17;;
34783;SDS011;20998;51.388;7.032;2023-07-20T04:14:55;14.80;;;5.37;;
34783;SDS011;20998;51.388;7.032;2023-07-20T04:17:21;12.57;;;6.33;;
34783;SDS011;20998;51.388;7.032;2023-07-20T04:19:47;21.63;;;7.27;;
34783;SDS011;20998;51.388;7.032;2023-07-20T04:22:13;10.23;;;6.20;;
34783;SDS011;20998;51.388;7.032;2023-07-20T04:24:41;16.00;;;6.73;;
34783;SDS011;20998;51.388;7.032;2023-07-20T04:27:07;12.93;;;7.23;;
34783;SDS011;20998;51.388;7.032;2023-07-20T04:29:33;20.87;;;7.50;;
34783;SDS011;20998;51.388;7.032;2023-07-20T04:31:58;12.67;;;7.07;;
34783;SDS011;20998;51.388;7.032;2023-07-20T04:34:24;12.93;;;7.27;;
34783;SDS011;20998;51.388;7.032;2023-07-20T04:36:50;20.07;;;7.30;;
34783;SDS011;20998;51.388;7.032;2023-07-20T04:39:16;17.27;;;8.27;;
34783;SDS011;20998;51.388;7.032;2023-07-20T04:41:42;15.27;;;7.47;;
34783;SDS011;20998;51.388;7.032;2023-07-20T04:44:08;17.53;;;7.97;;
34783;SDS011;20998;51.388;7.032;2023-07-20T04:46:34;12.83;;;7.47;;
34783;SDS011;20998;51.388;7.032;2023-07-20T04:49:00;29.70;;;8.90;;
34783;SDS011;20998;51.388;7.032;2023-07-20T04:51:26;24.30;;;12.27;;
34783;SDS011;20998;51.388;7.032;2023-07-20T04:53:55;22.37;;;11.60;;
34783;SDS011;20998;51.388;7.032;2023-07-20T04:56:21;18.77;;;9.37;;
34783;SDS011;20998;51.388;7.032;2023-07-20T04:58:48;27.30;;;11.20;;
34783;SDS011;20998;51.388;7.032;2023-07-20T05:01:14;19.53;;;9.87;;
34783;SDS011;20998;51.388;7.032;2023-07-20T05:03:40;15.73;;;9.33;;
34783;SDS011;20998;51.388;7.032;2023-07-20T05:06:06;23.23;;;9.60;;
34783;SDS011;20998;51.388;7.032;2023-07-20T05:08:32;19.10;;;11.30;;
34783;SDS011;20998;51.388;7.032;2023-07-20T05:10:59;21.60;;;12.20;;
34783;SDS011;20998;51.388;7.032;2023-07-20T05:13:25;25.03;;;12.00;;
34783;SDS011;20998;51.388;7.032;2023-07-20T05:15:52;27.43;;;12.80;;
34783;SDS011;20998;51.388;7.032;2023-07-20T05:18:18;22.27;;;12.30;;
34783;SDS011;20998;51.388;7.032;2023-07-20T05:20:48;23.23;;;11.70;;
34783;SDS011;20998;51.388;7.032;2023-07-20T05:23:14;23.80;;;12.57;;
34783;SDS011;20998;51.388;7.032;2023-07-20T05:25:40;20.23;;;11.77;;
34783;SDS011;20998;51.388;7.032;2023-07-20T05:28:06;25.83;;;12.97;;
34783;SDS011;20998;51.388;7.032;2023-07-20T05:30:32;24.73;;;12.00;;
34783;SDS011;20998;51.388;7.032;2023-07-20T05:32:58;18.40;;;11.10;;
34783;SDS011;20998;51.388;7.032;2023-07-20T05:35:23;22.37;;;12.77;;
34783;SDS011;20998;51.388;7.032;2023-07-20T05:37:49;24.10;;;10.63;;
34783;SDS011;20998;51.388;7.032;2023-07-20T05:40:15;27.43;;;11.57;;
34783;SDS011;20998;51.388;7.032;2023-07-20T05:42:44;17.47;;;11.27;;
34783;SDS011;20998;51.388;7.032;2023-07-20T05:45:11;17.50;;;9.47;;
34783;SDS011;20998;51.388;7.032;2023-07-20T05:47:36;20.13;;;11.20;;
34783;SDS011;20998;51.388;7.032;2023-07-20T05:50:02;24.80;;;10.70;;
34783;SDS011;20998;51.388;7.032;2023-07-20T05:52:28;16.57;;;10.20;;
34783;SDS011;20998;51.388;7.032;2023-07-20T05:54:54;20.40;;;10.00;;
34783;SDS011;20998;51.388;7.032;2023-07-20T05:57:20;14.87;;;9.33;;
34783;SDS011;20998;51.388;7.032;2023-07-20T05:59:46;20.53;;;9.90;;
34783;SDS011;20998;51.388;7.032;2023-07-20T06:02:12;16.50;;;9.53;;
34783;SDS011;20998;51.388;7.032;2023-07-20T06:04:38;18.10;;;9.83;;
34783;SDS011;20998;51.388;7.032;2023-07-20T06:07:04;14.47;;;8.87;;
34783;SDS011;20998;51.388;7.032;2023-07-20T06:09:32;15.43;;;8.53;;
34783;SDS011;20998;51.388;7.032;2023-07-20T06:11:58;13.63;;;8.03;;
34783;SDS011;20998;51.388;7.032;2023-07-20T06:14:24;14.03;;;7.20;;
34783;SDS011;20998;51.388;7.032;2023-07-20T06:16:50;9.27;;;6.43;;
34783;SDS011;20998;51.388;7.032;2023-07-20T06:19:16;11.27;;;6.40;;
34783;SDS011;20998;51.388;7.032;2023-07-20T06:21:42;13.13;;;7.23;;
34783;SDS011;20998;51.388;7.032;2023-07-20T06:24:08;23.43;;;7.33;;
34783;SDS011;20998;51.388;7.032;2023-07-20T06:26:34;9.77;;;6.67;;
34783;SDS011;20998;51.388;7.032;2023-07-20T06:29:05;6.67;;;4.97;;
34783;SDS011;20998;51.388;7.032;2023-07-20T06:31:32;7.47;;;5.60;;
34783;SDS011;20998;51.388;7.032;2023-07-20T06:33:58;11.03;;;5.60;;
34783;SDS011;20998;51.388;7.032;2023-07-20T06:36:24;8.87;;;5.77;;
34783;SDS011;20998;51.388;7.032;2023-07-20T06:38:53;6.73;;;5.10;;
34783;SDS011;20998;51.388;7.032;2023-07-20T06:41:19;7.37;;;4.80;;
34783;SDS011;20998;51.388;7.032;2023-07-20T06:43:45;5.40;;;4.27;;
34783;SDS011;20998;51.388;7.032;2023-07-20T06:46:11;4.83;;;3.93;;
34783;SDS011;20998;51.388;7.032;2023-07-20T06:48:37;9.37;;;4.73;;
34783;SDS011;20998;51.388;7.032;2023-07-20T06:51:03;5.80;;;3.97;;
34783;SDS011;20998;51.388;7.032;2023-07-20T06:53:29;4.10;;;3.33;;
34783;SDS011;20998;51.388;7.032;2023-07-20T06:55:55;5.03;;;3.60;;
34783;SDS011;20998;51.388;7.032;2023-07-20T06:58:22;5.47;;;3.00;;
34783;SDS011;20998;51.388;7.032;2023-07-20T07:00:48;3.73;;;3.17;;
34783;SDS011;20998;51.388;7.032;2023-07-20T07:03:14;5.47;;;3.17;;
34783;SDS011;20998;51.388;7.032;2023-07-20T07:05:40;10.80;;;3.73;;
34783;SDS011;20998;51.388;7.032;2023-07-20T07:08:06;5.77;;;4.13;;
34783;SDS011;20998;51.388;7.032;2023-07-20T07:10:34;9.60;;;5.47;;
34783;SDS011;20998;51.388;7.032;2023-07-20T07:13:00;7.97;;;6.10;;
34783;SDS011;20998;51.388;7.032;2023-07-20T07:15:27;8.80;;;6.50;;
34783;SDS011;20998;51.388;7.032;2023-07-20T07:17:53;8.47;;;6.23;;
34783;SDS011;20998;51.388;7.032;2023-07-20T07:20:19;8.80;;;6.57;;
34783;SDS011;20998;51.388;7.032;2023-07-20T07:22:45;8.43;;;6.53;;
34783;SDS011;20998;51.388;7.032;2023-07-20T07:25:11;12.50;;;10.10;;
34783;SDS011;20998;51.388;7.032;2023-07-20T07:27:37;10.87;;;7.77;;
34783;SDS011;20998;51.388;7.032;2023-07-20T07:30:04;13.33;;;8.27;;
34783;SDS011;20998;51.388;7.032;2023-07-20T07:32:30;11.13;;;7.90;;
34783;SDS011;20998;51.388;7.032;2023-07-20T07:34:56;9.83;;;7.80;;
34783;SDS011;20998;51.388;7.032;2023-07-20T07:37:25;11.70;;;7.33;;
34783;SDS011;20998;51.388;7.032;2023-07-20T07:39:51;11.43;;;7.33;;
34783;SDS011;20998;51.388;7.032;2023-07-20T07:42:17;10.80;;;7.93;;
34783;SDS011;20998;51.388;7.032;2023-07-20T07:44:46;9.67;;;7.00;;
34783;SDS011;20998;51.388;7.032;2023-07-20T07:47:12;10.57;;;7.60;;
34783;SDS011;20998;51.388;7.032;2023-07-20T07:49:38;11.93;;;7.83;;
34783;SDS011;20998;51.388;7.032;2023-07-20T07:52:04;10.83;;;7.47;;
34783;SDS011;20998;51.388;7.032;2023-07-20T07:54:30;10.67;;;7.83;;
34783;SDS011;20998;51.388;7.032;2023-07-20T07:56:56;9.23;;;7.50;;
34783;SDS011;20998;51.388;7.032;2023-07-20T07:59:22;8.73;;;6.73;;
34783;SDS011;20998;51.388;7.032;2023-07-20T08:01:48;27.20;;;5.97;;
34783;SDS011;20998;51.388;7.032;2023-07-20T08:04:14;6.93;;;5.23;;
34783;SDS011;20998;51.388;7.032;2023-07-20T08:06:40;5.20;;;4.10;;
34783;SDS011;20998;51.388;7.032;2023-07-20T08:09:06;4.47;;;3.53;;
34783;SDS011;20998;51.388;7.032;2023-07-20T08:11:32;3.97;;;2.97;;
34783;SDS011;20998;51.388;7.032;2023-07-20T08:14:01;4.00;;;3.43;;
34783;SDS011;20998;51.388;7.032;2023-07-20T08:16:27;4.83;;;3.80;;
34783;SDS011;20998;51.388;7.032;2023-07-20T08:18:53;4.53;;;3.70;;
34783;SDS011;20998;51.388;7.032;2023-07-20T08:21:19;4.53;;;3.93;;
34783;SDS011;20998;51.388;7.032;2023-07-20T08:23:45;3.37;;;3.03;;
34783;SDS011;20998;51.388;7.032;2023-07-20T08:26:11;3.10;;;2.33;;
34783;SDS011;20998;51.388;7.032;2023-07-20T08:28:36;2.60;;;2.40;;
34783;SDS011;20998;51.388;7.032;2023-07-20T08:31:02;2.40;;;2.20;;
34783;SDS011;20998;51.388;7.032;2023-07-20T08:33:31;2.80;;;2.13;;
34783;SDS011;20998;51.388;7.032;2023-07-20T08:35:58;2.13;;;1.87;;
34783;SDS011;20998;51.388;7.032;2023-07-20T08:38:24;1.70;;;1.60;;
34783;SDS011;20998;51.388;7.032;2023-07-20T08:40:50;1.20;;;1.10;;
34783;SDS011;20998;51.388;7.032;2023-07-20T08:43:18;1.37;;;0.80;;
34783;SDS011;20998;51.388;7.032;2023-07-20T08:45:45;1.60;;;1.20;;
34783;SDS011;20998;51.388;7.032;2023-07-20T08:48:11;0.93;;;0.80;;
34783;SDS011;20998;51.388;7.032;2023-07-20T08:50:37;1.60;;;1.20;;
34783;SDS011;20998;51.388;7.032;2023-07-20T08:53:03;3.05;;;1.25;;
34783;SDS011;20998;51.388;7.032;2023-07-20T08:55:29;8.70;;;0.77;;
34783;SDS011;20998;51.388;7.032;2023-07-20T08:57:57;10.38;;;1.05;;
34783;SDS011;20998;51.388;7.032;2023-07-20T09:00:24;2.25;;;0.75;;
34783;SDS011;20998;51.388;7.032;2023-07-20T09:02:50;1.23;;;0.80;;
34783;SDS011;20998;51.388;7.032;2023-07-20T09:05:19;1.17;;;0.90;;
34783;SDS011;20998;51.388;7.032;2023-07-20T09:07:45;1.47;;;1.00;;
34783;SDS011;20998;51.388;7.032;2023-07-20T09:10:12;0.68;;;0.68;;
34783;SDS011;20998;51.388;7.032;2023-07-20T09:12:39;0.90;;;0.90;;
34783;SDS011;20998;51.388;7.032;2023-07-20T09:15:06;1.67;;;1.00;;
34783;SDS011;20998;51.388;7.032;2023-07-20T09:17:33;1.45;;;0.82;;
34783;SDS011;20998;51.388;7.032;2023-07-20T09:19:58;1.50;;;0.88;;
34783;SDS011;20998;51.388;7.032;2023-07-20T09:22:31;1.08;;;0.98;;
34783;SDS011;20998;51.388;7.032;2023-07-20T09:24:57;2.03;;;1.13;;
34783;SDS011;20998;51.388;7.032;2023-07-20T09:27:56;1.02;;;0.95;;
34783;SDS011;20998;51.388;7.032;2023-07-20T09:30:15;1.08;;;1.00;;
34783;SDS011;20998;51.388;7.032;2023-07-20T09:35:21;1.27;;;0.98;;
34783;SDS011;20998;51.388;7.032;2023-07-20T09:40:18;1.85;;;0.90;;
34783;SDS011;20998;51.388;7.032;2023-07-20T09:42:44;1.83;;;1.65;;
34783;SDS011;20998;51.388;7.032;2023-07-20T09:45:10;0.98;;;0.77;;
34783;SDS011;20998;51.388;7.032;2023-07-20T09:47:37;0.85;;;0.80;;
34783;SDS011;20998;51.388;7.032;2023-07-20T09:50:03;0.80;;;0.80;;
34783;SDS011;20998;51.388;7.032;2023-07-20T09:52:30;0.70;;;0.70;;
34783;SDS011;20998;51.388;7.032;2023-07-20T09:54:56;1.10;;;1.08;;
34783;SDS011;20998;51.388;7.032;2023-07-20T09:57:23;0.90;;;0.90;;
34783;SDS011;20998;51.388;7.032;2023-07-20T09:59:51;0.97;;;0.90;;
34783;SDS011;20998;51.388;7.032;2023-07-20T10:02:20;1.27;;;1.00;;
34783;SDS011;20998;51.388;7.032;2023-07-20T10:04:52;3.23;;;1.00;;
34783;SDS011;20998;51.388;7.032;2023-07-20T10:07:19;1.20;;;1.10;;
34783;SDS011;20998;51.388;7.032;2023-07-20T10:09:46;1.90;;;0.60;;
34783;SDS011;20998;51.388;7.032;2023-07-20T10:12:13;1.30;;;0.90;;
34783;SDS011;20998;51.388;7.032;2023-07-20T10:14:41;0.97;;;0.97;;
34783;SDS011;20998;51.388;7.032;2023-07-20T10:17:15;0.97;;;0.90;;
34783;SDS011;20998;51.388;7.032;2023-07-20T10:19:42;1.00;;;1.00;;
34783;SDS011;20998;51.388;7.032;2023-07-20T10:22:26;1.17;;;1.00;;
34783;SDS011;20998;51.388;7.032;2023-07-20T10:24:52;1.50;;;1.20;;
34783;SDS011;20998;51.388;7.032;2023-07-20T10:27:23;1.20;;;1.13;;
34783;SDS011;20998;51.388;7.032;2023-07-20T10:29:50;2.57;;;1.30;;
34783;SDS011;20998;51.388;7.032;2023-07-20T10:32:18;1.43;;;1.30;;
34783;SDS011;20998;51.388;7.032;2023-07-20T10:34:50;2.67;;;1.20;;
34783;SDS011;20998;51.388;7.032;2023-07-20T10:40:23;0.73;;;0.73;;
34783;SDS011;20998;51.388;7.032;2023-07-20T10:45:34;3.50;;;0.80;;
34783;SDS011;20998;51.388;7.032;2023-07-20T10:48:19;1.37;;;1.03;;
34783;SDS011;20998;51.388;7.032;2023-07-20T10:53:39;1.87;;;1.63;;
34783;SDS011;20998;51.388;7.032;2023-07-20T10:58:38;3.60;;;2.93;;
34783;SDS011;20998;51.388;7.032;2023-07-20T11:01:04;3.73;;;3.10;;
34783;SDS011;20998;51.388;7.032;2023-07-20T11:03:32;2.90;;;2.57;;
34783;SDS011;20998;51.388;7.032;2023-07-20T11:05:59;2.67;;;2.40;;
34783;SDS011;20998;51.388;7.032;2023-07-20T11:11:44;4.33;;;2.53;;
34783;SDS011;20998;51.388;7.032;2023-07-20T11:14:25;3.07;;;2.70;;
34783;SDS011;20998;51.388;7.032;2023-07-20T11:16:51;3.17;;;2.80;;
34783;SDS011;20998;51.388;7.032;2023-07-20T11:19:18;3.33;;;3.03;;
34783;SDS011;20998;51.388;7.032;2023-07-20T11:21:51;3.80;;;3.40;;
34783;SDS011;20998;51.388;7.032;2023-07-20T11:24:18;4.00;;;3.20;;
34783;SDS011;20998;51.388;7.032;2023-07-20T11:26:48;2.63;;;2.40;;
34783;SDS011;20998;51.388;7.032;2023-07-20T11:29:18;4.73;;;3.40;;
34783;SDS011;20998;51.388;7.032;2023-07-20T11:31:45;3.27;;;2.23;;
34783;SDS011;20998;51.388;7.032;2023-07-20T11:34:15;2.97;;;2.63;;
34783;SDS011;20998;51.388;7.032;2023-07-20T11:36:43;4.47;;;2.90;;
34783;SDS011;20998;51.388;7.032;2023-07-20T11:39:11;3.13;;;2.83;;
34783;SDS011;20998;51.388;7.032;2023-07-20T11:41:37;3.27;;;2.83;;
34783;SDS011;20998;51.388;7.032;2023-07-20T11:44:05;3.57;;;2.63;;
34783;SDS011;20998;51.388;7.032;2023-07-20T11:46:38;3.70;;;2.93;;
34783;SDS011;20998;51.388;7.032;2023-07-20T11:49:05;3.00;;;2.70;;
34783;SDS011;20998;51.388;7.032;2023-07-20T11:51:31;2.53;;;2.33;;
34783;SDS011;20998;51.388;7.032;2023-07-20T11:53:58;2.73;;;2.50;;
34783;SDS011;20998;51.388;7.032;2023-07-20T11:56:25;2.90;;;2.30;;
34783;SDS011;20998;51.388;7.032;2023-07-20T11:58:54;2.27;;;2.07;;
34783;SDS011;20998;51.388;7.032;2023-07-20T12:01:22;2.20;;;2.00;;
34783;SDS011;20998;51.388;7.032;2023-07-20T12:03:48;1.93;;;1.77;;
34783;SDS011;20998;51.388;7.032;2023-07-20T12:06:15;1.52;;;1.42;;
34783;SDS011;20998;51.388;7.032;2023-07-20T12:08:41;1.38;;;1.20;;
34783;SDS011;20998;51.388;7.032;2023-07-20T12:11:07;3.28;;;1.52;;
34783;SDS011;20998;51.388;7.032;2023-07-20T12:13:37;2.55;;;1.65;;
34783;SDS011;20998;51.388;7.032;2023-07-20T12:16:36;1.60;;;1.48;;
34783;SDS011;20998;51.388;7.032;2023-07-20T12:21:30;1.42;;;1.33;;
34783;SDS011;20998;51.388;7.032;2023-07-20T12:23:56;6.28;;;1.60;;
34783;SDS011;20998;51.388;7.032;2023-07-20T12:26:23;2.97;;;1.35;;
34783;SDS011;20998;51.388;7.032;2023-07-20T12:28:50;1.38;;;1.23;;
34783;SDS011;20998;51.388;7.032;2023-07-20T12:31:16;1.45;;;1.30;;
34783;SDS011;20998;51.388;7.032;2023-07-20T12:33:42;1.33;;;1.23;;
34783;SDS011;20998;51.388;7.032;2023-07-20T12:36:09;1.60;;;1.13;;
34783;SDS011;20998;51.388;7.032;2023-07-20T12:38:35;1.63;;;1.20;;
34783;SDS011;20998;51.388;7.032;2023-07-20T12:41:01;1.08;;;1.00;;
34783;SDS011;20998;51.388;7.032;2023-07-20T12:43:27;3.63;;;1.00;;
34783;SDS011;20998;51.388;7.032;2023-07-20T12:45:53;2.47;;;1.40;;
34783;SDS011;20998;51.388;7.032;2023-07-20T12:48:19;4.72;;;1.95;;
34783;SDS011;20998;51.388;7.032;2023-07-20T12:50:45;1.55;;;1.45;;
34783;SDS011;20998;51.388;7.032;2023-07-20T12:53:11;1.70;;;1.60;;
34783;SDS011;20998;51.388;7.032;2023-07-20T12:55:37;2.80;;;1.73;;
34783;SDS011;20998;51.388;7.032;2023-07-20T12:58:04;2.58;;;1.80;;
34783;SDS011;20998;51.388;7.032;2023-07-20T13:00:30;2.10;;;1.65;;
34783;SDS011;20998;51.388;7.032;2023-07-20T13:02:56;2.10;;;1.83;;
34783;SDS011;20998;51.388;7.032;2023-07-20T13:05:22;1.65;;;1.52;;
34783;SDS011;20998;51.388;7.032;2023-07-20T13:07:48;1.92;;;1.67;;
34783;SDS011;20998;51.388;7.032;2023-07-20T13:10:14;1.30;;;1.20;;
34783;SDS011;20998;51.388;7.032;2023-07-20T13:12:40;1.27;;;1.17;;
34783;SDS011;20998;51.388;7.032;2023-07-20T13:15:06;2.00;;;1.67;;
34783;SDS011;20998;51.388;7.032;2023-07-20T13:17:33;1.88;;;1.30;;
34783;SDS011;20998;51.388;7.032;2023-07-20T13:20:00;1.30;;;1.20;;
34783;SDS011;20998;51.388;7.032;2023-07-20T13:22:25;1.90;;;1.27;;
34783;SDS011;20998;51.388;7.032;2023-07-20T13:24:52;1.58;;;1.45;;
34783;SDS011;20998;51.388;7.032;2023-07-20T13:27:18;2.05;;;1.13;;
34783;SDS011;20998;51.388;7.032;2023-07-20T13:29:44;2.70;;;1.40;;
34783;SDS011;20998;51.388;7.032;2023-07-20T13:32:12;1.02;;;0.93;;
34783;SDS011;20998;51.388;7.032;2023-07-20T13:34:39;2.38;;;1.10;;
34783;SDS011;20998;51.388;7.032;2023-07-20T13:37:05;1.40;;;0.85;;
34783;SDS011;20998;51.388;7.032;2023-07-20T13:39:31;2.00;;;1.20;;
34783;SDS011;20998;51.388;7.032;2023-07-20T13:41:57;1.58;;;1.17;;
34783;SDS011;20998;51.388;7.032;2023-07-20T13:44:23;1.63;;;1.13;;
34783;SDS011;20998;51.388;7.032;2023-07-20T13:46:49;2.60;;;1.17;;
34783;SDS011;20998;51.388;7.032;2023-07-20T13:49:15;1.10;;;1.00;;
34783;SDS011;20998;51.388;7.032;2023-07-20T13:51:42;1.67;;;0.90;;
34783;SDS011;20998;51.388;7.032;2023-07-20T13:54:08;1.23;;;0.90;;
34783;SDS011;20998;51.388;7.032;2023-07-20T13:56:34;4.53;;;1.02;;
34783;SDS011;20998;51.388;7.032;2023-07-20T13:59:00;6.55;;;1.10;;
34783;SDS011;20998;51.388;7.032;2023-07-20T14:01:26;2.33;;;0.83;;
34783;SDS011;20998;51.388;7.032;2023-07-20T14:03:53;2.10;;;1.13;;
34783;SDS011;20998;51.388;7.032;2023-07-20T14:06:19;1.20;;;1.10;;
34783;SDS011;20998;51.388;7.032;2023-07-20T14:08:45;1.87;;;0.93;;
34783;SDS011;20998;51.388;7.032;2023-07-20T14:11:12;0.80;;;0.70;;
34783;SDS011;20998;51.388;7.032;2023-07-20T14:13:38;3.63;;;0.80;;
34783;SDS011;20998;51.388;7.032;2023-07-20T14:16:04;3.70;;;1.03;;
34783;SDS011;20998;51.388;7.032;2023-07-20T14:18:30;1.90;;;0.87;;
34783;SDS011;20998;51.388;7.032;2023-07-20T14:20:55;1.60;;;0.70;;
34783;SDS011;20998;51.388;7.032;2023-07-20T14:23:21;1.00;;;0.97;;
34783;SDS011;20998;51.388;7.032;2023-07-20T14:25:47;0.87;;;0.80;;
34783;SDS011;20998;51.388;7.032;2023-07-20T14:28:14;2.90;;;0.90;;
34783;SDS011;20998;51.388;7.032;2023-07-20T14:30:43;1.03;;;0.90;;
34783;SDS011;20998;51.388;7.032;2023-07-20T14:33:09;0.80;;;0.70;;
34783;SDS011;20998;51.388;7.032;2023-07-20T14:35:34;2.03;;;0.82;;
34783;SDS011;20998;51.388;7.032;2023-07-20T14:38:00;0.77;;;0.68;;
34783;SDS011;20998;51.388;7.032;2023-07-20T14:40:26;0.77;;;0.77;;
34783;SDS011;20998;51.388;7.032;2023-07-20T14:42:52;1.45;;;0.80;;
34783;SDS011;20998;51.388;7.032;2023-07-20T14:45:18;0.67;;;0.67;;
34783;SDS011;20998;51.388;7.032;2023-07-20T14:47:44;0.80;;;0.80;;
34783;SDS011;20998;51.388;7.032;2023-07-20T14:50:10;3.03;;;0.73;;
34783;SDS011;20998;51.388;7.032;2023-07-20T14:52:36;2.40;;;0.77;;
34783;SDS011;20998;51.388;7.032;2023-07-20T14:55:02;1.15;;;0.88;;
34783;SDS011;20998;51.388;7.032;2023-07-20T14:57:28;2.90;;;0.80;;
34783;SDS011;20998;51.388;7.032;2023-07-20T14:59:53;0.70;;;0.70;;
34783;SDS011;20998;51.388;7.032;2023-07-20T15:02:19;1.00;;;0.80;;
34783;SDS011;20998;51.388;7.032;2023-07-20T15:04:46;1.10;;;0.90;;
34783;SDS011;20998;51.388;7.032;2023-07-20T15:07:12;0.70;;;0.70;;
34783;SDS011;20998;51.388;7.032;2023-07-20T15:09:38;0.75;;;0.75;;
34783;SDS011;20998;51.388;7.032;2023-07-20T15:12:04;0.80;;;0.80;;